CSCL Dalian — VRBH4 — position and weather

sailwx.info

Track history (hours):
 
Tides and Currents Weather Stations Pressure Air Temp Water Temp Dewpoint Dewpoint Depression Visibility Wind Speed Wind Dir Waves Ship Positions

CSCL Dalian

Last reported at 2016-Feb-11 01:33 UTC. Time now 2016-Feb-11 02:29 UTC.
Position N 37°49' W 122°26'.

Length 259.8 m; ; draft 11 m.

Type: Ship (hazmat cat A). MMSI: 477014600.

Date/timePositionNaut miles runAvg speedWind from/ knotsBaromVisibWave heightAir tempDewpointWater temp
2016-Feb-11 01:33N 37°49' W 122°26'4 4.3
2016-Feb-11 00:33N 37°48' W 122°31'1211.9
2016-Feb-10 23:33N 37°42' W 122°44'1211.6
2016-Feb-10 22:33N 37°35' W 122°56'1414.1
2016-Feb-10 21:33N 37°29' W 123°12'1414.3
2016-Feb-10 20:34N 37°28' W 123°30'2 1.9
2016-Feb-10 19:34N 37°28' W 123°32'1 1.1
2016-Feb-10 18:34N 37°29' W 123°33'1 1.1
2016-Feb-10 17:34N 37°30' W 123°33'4 4.2
2016-Feb-10 16:33N 37°29' W 123°28'1 0.6
2016-Feb-10 15:33N 37°30' W 123°28'1 1.3
2016-Feb-10 14:33N 37°31' W 123°29'1 1.2
2016-Feb-10 13:33N 37°32' W 123°30'1 0.8
2016-Feb-10 12:24N 37°32' W 123°31'1 0.6
2016-Feb-10 10:31N 37°33' W 123°32'1 0.5
2016-Feb-10 09:23N 37°33' W 123°33'0 0.5
2016-Feb-10 08:33N 37°33' W 123°33'1110.7
2016-Feb-10 07:33N 37°44' W 123°34'1211.6
2016-Feb-10 06:33N 37°55' W 123°34'1212.0
2016-Feb-10 05:33N 38°08' W 123°34'1212.0
2016-Feb-10 04:33N 38°20' W 123°34'1211.9
2016-Feb-10 03:33N 38°29' W 123°43'1211.8
2016-Feb-10 02:32N 38°39' W 123°53'2512.2
2016-Feb-10 00:26N 38°59' W 124°13'4 8.6
2016-Feb-10 00:00N 39°00' W 124°18'13311.1 320 / 121020.010.8 1.016.010.316.0
2016-Feb-09 12:00N 41°06' W 125°12'22411.5 140 / 161019.027.0 2.014.0 8.013.0
2016-Feb-08 16:29N 44°50' W 125°16'1111.5
2016-Feb-08 15:30N 45°01' W 125°16'2711.6
2016-Feb-08 13:12N 45°27' W 125°16'711.4
2016-Feb-08 12:33N 45°35' W 125°16'1111.5
2016-Feb-08 11:33N 45°46' W 125°16'1111.4
2016-Feb-08 10:34N 45°58' W 125°16'1111.2
2016-Feb-08 09:33N 46°09' W 125°16'1111.3
2016-Feb-08 08:33N 46°20' W 125°16'1211.3
2016-Feb-08 07:31N 46°32' W 125°16'1111.6
2016-Feb-08 06:33N 46°43' W 125°16'6 9.9
2016-Feb-08 06:00N 46°48' W 125°12'817.4 050 / 71029.310.8 1.011.0 6.8 6.0
2016-Feb-08 05:33N 46°55' W 125°17'1211.9
2016-Feb-08 04:33N 47°07' W 125°16'1211.7
2016-Feb-08 03:33N 47°18' W 125°16'1111.4
2016-Feb-08 02:33N 47°30' W 125°16'1211.7
2016-Feb-08 01:33N 47°42' W 125°16'1311.8
2016-Feb-08 00:26N 47°55' W 125°16'613.3
2016-Feb-08 00:00N 48°00' W 125°12'613.4 020 / 81030.010.8 1.510.0 7.912.0
2016-Feb-07 23:33N 48°05' W 125°16'1111.5
2016-Feb-07 22:33N 48°17' W 125°16'1111.2
2016-Feb-07 21:33N 48°26' W 125°07'4910.9
2016-Feb-07 17:05N 48°18' W 123°55'712.3
2016-Feb-07 16:32N 48°17' W 123°44'1111.4
2016-Feb-07 15:34N 48°18' W 123°28'1211.8
2016-Feb-07 14:34N 48°25' W 123°13'1818.2
2016-Feb-07 13:33N 48°43' W 123°12'1313.1
2016-Feb-07 12:34N 48°56' W 123°10'1212.2
2016-Feb-07 11:33N 49°08' W 123°15'1111.0
2016-Feb-07 10:34N 49°09' W 122°58'3 2.8
2016-Feb-07 09:31N 49°11' W 122°55'0 0.0
2016-Feb-07 08:31N 49°11' W 122°55'0 0.0
2016-Feb-07 07:31N 49°11' W 122°55'0 0.0
2016-Feb-07 06:31N 49°11' W 122°55'0 0.0
2016-Feb-07 05:31N 49°11' W 122°55'0 0.0
2016-Feb-07 04:31N 49°11' W 122°55'0 0.0
2016-Feb-07 03:31N 49°11' W 122°55'0 0.0
2016-Feb-07 02:31N 49°11' W 122°55'0 0.0
2016-Feb-07 01:31N 49°11' W 122°55'0 0.0
2016-Feb-07 00:31N 49°11' W 122°55'0 0.0
2016-Feb-06 23:31N 49°11' W 122°55'0 0.0
2016-Feb-06 22:31N 49°11' W 122°55'0 0.0
2016-Feb-06 21:31N 49°11' W 122°55'0 0.0
2016-Feb-06 20:31N 49°11' W 122°55'0 0.0
2016-Feb-06 19:31N 49°11' W 122°55'0 0.0
2016-Feb-06 18:31N 49°11' W 122°55'0 0.0
2016-Feb-06 17:31N 49°11' W 122°55'0 0.0
2016-Feb-06 16:31N 49°11' W 122°55'0 0.0
2016-Feb-06 15:31N 49°11' W 122°55'0 0.0
2016-Feb-06 14:31N 49°11' W 122°55'0 0.0
2016-Feb-06 13:31N 49°11' W 122°55'0 0.0
2016-Feb-06 12:31N 49°11' W 122°55'0 0.0
2016-Feb-06 11:31N 49°11' W 122°55'0 0.0
2016-Feb-06 10:31N 49°11' W 122°55'0 0.0
2016-Feb-06 09:31N 49°11' W 122°55'0 0.0
2016-Feb-06 08:31N 49°11' W 122°55'0 0.0
2016-Feb-06 07:31N 49°11' W 122°55'0 0.0
2016-Feb-06 06:31N 49°11' W 122°55'0 0.0
2016-Feb-06 05:31N 49°11' W 122°55'0 0.0
2016-Feb-06 04:31N 49°11' W 122°55'0 0.0
2016-Feb-06 03:31N 49°11' W 122°55'0 0.0
2016-Feb-06 02:31N 49°11' W 122°55'0 0.0
2016-Feb-06 01:31N 49°11' W 122°55'0 0.0
2016-Feb-06 00:31N 49°11' W 122°55'0 0.0
2016-Feb-05 23:33N 49°11' W 122°55'2 1.7
2016-Feb-05 22:33N 49°10' W 122°56'1110.6
2016-Feb-05 21:33N 49°07' W 123°12'7 7.0
2016-Feb-05 20:33N 49°01' W 123°15'1717.0
2016-Feb-05 19:33N 48°45' W 123°03'1615.6
2016-Feb-05 18:33N 48°31' W 123°11'1413.7
2016-Feb-05 17:33N 48°20' W 123°24'1111.5
2016-Feb-05 16:33N 48°09' W 123°18'1919.1
2016-Feb-05 15:33N 48°12' W 122°49'2020.1
2016-Feb-05 14:34N 47°56' W 122°30'2019.7
2016-Feb-05 13:33N 47°37' W 122°27'1615.9
2016-Feb-05 12:34N 47°21' W 122°25'5 0.1
2016-Feb-04 03:28N 47°16' W 122°24'5 5.2
2016-Feb-04 02:34N 47°21' W 122°26'1616.4
2016-Feb-04 01:34N 47°37' W 122°28'1817.8
2016-Feb-04 00:34N 47°55' W 122°30'1615.3
2016-Feb-03 23:31N 48°08' W 122°43'1515.2
2016-Feb-03 22:33N 48°12' W 123°04'1414.3
2016-Feb-03 21:33N 48°11' W 123°26'7 7.4
2016-Feb-03 20:33N 48°13' W 123°36'1211.8
2016-Feb-03 19:33N 48°14' W 123°54'1111.4
2016-Feb-03 18:33N 48°18' W 124°10'3410.9
2016-Feb-03 15:28N 48°28' W 124°58'1212.3
2016-Feb-03 14:30N 48°19' W 125°08'3714.7
2016-Feb-03 12:00N 47°42' W 125°12'4312.4 180 / 161017.010.8 2.0 9.0 6.914.0
2016-Feb-03 08:33N 46°60' W 125°16'1413.6
2016-Feb-03 07:31N 46°46' W 125°16'1414.1
2016-Feb-03 06:34N 46°32' W 125°15'1414.2
2016-Feb-03 05:34N 46°18' W 125°16'1414.1
2016-Feb-03 04:33N 46°04' W 125°16'6414.0
2016-Feb-03 00:00N 45°00' W 125°12'37912.8 190 / 161020.010.8 2.0 8.0 5.814.0
2016-Feb-01 18:28N 38°45' W 123°58'1314.2
2016-Feb-01 17:33N 38°35' W 123°48'1414.4
2016-Feb-01 16:33N 38°24' W 123°36'1414.1
2016-Feb-01 15:33N 38°13' W 123°24'1413.7
2016-Feb-01 14:33N 38°03' W 123°13'1313.3
2016-Feb-01 13:33N 37°55' W 122°60'1414.3
2016-Feb-01 12:34N 37°47' W 122°45'9 8.6
2016-Feb-01 11:33N 37°47' W 122°34'1110.7
2016-Feb-01 10:33N 37°49' W 122°20'1 0.6
2016-Feb-01 09:31N 37°49' W 122°19'0 0.0
2016-Feb-01 08:31N 37°49' W 122°19'0 0.0
2016-Feb-01 07:31N 37°49' W 122°19'0 0.0
2016-Feb-01 06:31N 37°49' W 122°19'0 0.0
2016-Feb-01 05:31N 37°49' W 122°19'0 0.0
2016-Feb-01 04:31N 37°49' W 122°19'0 0.0
2016-Feb-01 03:31N 37°49' W 122°19'0 0.0
2016-Feb-01 02:31N 37°49' W 122°19'  
Track history (hours):
 
Tides and Currents Weather Stations Pressure Air Temp Water Temp Dewpoint Dewpoint Depression Visibility Wind Speed Wind Dir Waves Ship Positions

CSCL Dalian

Last reported at 2016-Feb-11 01:33 UTC. Time now 2016-Feb-11 02:29 UTC.
Position N 37°49' W 122°26'.

Length 259.8 m; ; draft 11 m.

Type: Ship (hazmat cat A). MMSI: 477014600.

Date/timePositionNaut miles runAvg speedWind from/ knotsBaromVisibWave heightAir tempDewpointWater temp
2016-Feb-11 01:33N 37°49' W 122°26'4 4.3
2016-Feb-11 00:33N 37°48' W 122°31'1211.9
2016-Feb-10 23:33N 37°42' W 122°44'1211.6
2016-Feb-10 22:33N 37°35' W 122°56'1414.1
2016-Feb-10 21:33N 37°29' W 123°12'1414.3
2016-Feb-10 20:34N 37°28' W 123°30'2 1.9
2016-Feb-10 19:34N 37°28' W 123°32'1 1.1
2016-Feb-10 18:34N 37°29' W 123°33'1 1.1
2016-Feb-10 17:34N 37°30' W 123°33'4 4.2
2016-Feb-10 16:33N 37°29' W 123°28'1 0.6
2016-Feb-10 15:33N 37°30' W 123°28'1 1.3
2016-Feb-10 14:33N 37°31' W 123°29'1 1.2
2016-Feb-10 13:33N 37°32' W 123°30'1 0.8
2016-Feb-10 12:24N 37°32' W 123°31'1 0.6
2016-Feb-10 10:31N 37°33' W 123°32'1 0.5
2016-Feb-10 09:23N 37°33' W 123°33'0 0.5
2016-Feb-10 08:33N 37°33' W 123°33'1110.7
2016-Feb-10 07:33N 37°44' W 123°34'1211.6
2016-Feb-10 06:33N 37°55' W 123°34'1212.0
2016-Feb-10 05:33N 38°08' W 123°34'1212.0
2016-Feb-10 04:33N 38°20' W 123°34'1211.9
2016-Feb-10 03:33N 38°29' W 123°43'1211.8
2016-Feb-10 02:32N 38°39' W 123°53'2512.2
2016-Feb-10 00:26N 38°59' W 124°13'4 8.6
2016-Feb-10 00:00N 39°00' W 124°18'13311.1 320 / 121020.010.8 1.016.010.316.0
2016-Feb-09 12:00N 41°06' W 125°12'22411.5 140 / 161019.027.0 2.014.0 8.013.0
2016-Feb-08 16:29N 44°50' W 125°16'1111.5
2016-Feb-08 15:30N 45°01' W 125°16'2711.6
2016-Feb-08 13:12N 45°27' W 125°16'711.4
2016-Feb-08 12:33N 45°35' W 125°16'1111.5
2016-Feb-08 11:33N 45°46' W 125°16'1111.4
2016-Feb-08 10:34N 45°58' W 125°16'1111.2
2016-Feb-08 09:33N 46°09' W 125°16'1111.3
2016-Feb-08 08:33N 46°20' W 125°16'1211.3
2016-Feb-08 07:31N 46°32' W 125°16'1111.6
2016-Feb-08 06:33N 46°43' W 125°16'6 9.9
2016-Feb-08 06:00N 46°48' W 125°12'817.4 050 / 71029.310.8 1.011.0 6.8 6.0
2016-Feb-08 05:33N 46°55' W 125°17'1211.9
2016-Feb-08 04:33N 47°07' W 125°16'1211.7
2016-Feb-08 03:33N 47°18' W 125°16'1111.4
2016-Feb-08 02:33N 47°30' W 125°16'1211.7
2016-Feb-08 01:33N 47°42' W 125°16'1311.8
2016-Feb-08 00:26N 47°55' W 125°16'613.3
2016-Feb-08 00:00N 48°00' W 125°12'613.4 020 / 81030.010.8 1.510.0 7.912.0
2016-Feb-07 23:33N 48°05' W 125°16'1111.5
2016-Feb-07 22:33N 48°17' W 125°16'1111.2
2016-Feb-07 21:33N 48°26' W 125°07'4910.9
2016-Feb-07 17:05N 48°18' W 123°55'712.3
2016-Feb-07 16:32N 48°17' W 123°44'1111.4
2016-Feb-07 15:34N 48°18' W 123°28'1211.8
2016-Feb-07 14:34N 48°25' W 123°13'1818.2
2016-Feb-07 13:33N 48°43' W 123°12'1313.1
2016-Feb-07 12:34N 48°56' W 123°10'1212.2
2016-Feb-07 11:33N 49°08' W 123°15'1111.0
2016-Feb-07 10:34N 49°09' W 122°58'3 2.8
2016-Feb-07 09:31N 49°11' W 122°55'0 0.0
2016-Feb-07 08:31N 49°11' W 122°55'0 0.0
2016-Feb-07 07:31N 49°11' W 122°55'0 0.0
2016-Feb-07 06:31N 49°11' W 122°55'0 0.0
2016-Feb-07 05:31N 49°11' W 122°55'0 0.0
2016-Feb-07 04:31N 49°11' W 122°55'0 0.0
2016-Feb-07 03:31N 49°11' W 122°55'0 0.0
2016-Feb-07 02:31N 49°11' W 122°55'0 0.0
2016-Feb-07 01:31N 49°11' W 122°55'0 0.0
2016-Feb-07 00:31N 49°11' W 122°55'0 0.0
2016-Feb-06 23:31N 49°11' W 122°55'0 0.0
2016-Feb-06 22:31N 49°11' W 122°55'0 0.0
2016-Feb-06 21:31N 49°11' W 122°55'0 0.0
2016-Feb-06 20:31N 49°11' W 122°55'0 0.0
2016-Feb-06 19:31N 49°11' W 122°55'0 0.0
2016-Feb-06 18:31N 49°11' W 122°55'0 0.0
2016-Feb-06 17:31N 49°11' W 122°55'0 0.0
2016-Feb-06 16:31N 49°11' W 122°55'0 0.0
2016-Feb-06 15:31N 49°11' W 122°55'0 0.0
2016-Feb-06 14:31N 49°11' W 122°55'0 0.0
2016-Feb-06 13:31N 49°11' W 122°55'0 0.0
2016-Feb-06 12:31N 49°11' W 122°55'0 0.0
2016-Feb-06 11:31N 49°11' W 122°55'0 0.0
2016-Feb-06 10:31N 49°11' W 122°55'0 0.0
2016-Feb-06 09:31N 49°11' W 122°55'0 0.0
2016-Feb-06 08:31N 49°11' W 122°55'0 0.0
2016-Feb-06 07:31N 49°11' W 122°55'0 0.0
2016-Feb-06 06:31N 49°11' W 122°55'0 0.0
2016-Feb-06 05:31N 49°11' W 122°55'0 0.0
2016-Feb-06 04:31N 49°11' W 122°55'0 0.0
2016-Feb-06 03:31N 49°11' W 122°55'0 0.0
2016-Feb-06 02:31N 49°11' W 122°55'0 0.0
2016-Feb-06 01:31N 49°11' W 122°55'0 0.0
2016-Feb-06 00:31N 49°11' W 122°55'0 0.0
2016-Feb-05 23:33N 49°11' W 122°55'2 1.7
2016-Feb-05 22:33N 49°10' W 122°56'1110.6
2016-Feb-05 21:33N 49°07' W 123°12'7 7.0
2016-Feb-05 20:33N 49°01' W 123°15'1717.0
2016-Feb-05 19:33N 48°45' W 123°03'1615.6
2016-Feb-05 18:33N 48°31' W 123°11'1413.7
2016-Feb-05 17:33N 48°20' W 123°24'1111.5
2016-Feb-05 16:33N 48°09' W 123°18'1919.1
2016-Feb-05 15:33N 48°12' W 122°49'2020.1
2016-Feb-05 14:34N 47°56' W 122°30'2019.7
2016-Feb-05 13:33N 47°37' W 122°27'1615.9
2016-Feb-05 12:34N 47°21' W 122°25'5 0.1
2016-Feb-04 03:28N 47°16' W 122°24'5 5.2
2016-Feb-04 02:34N 47°21' W 122°26'1616.4
2016-Feb-04 01:34N 47°37' W 122°28'1817.8
2016-Feb-04 00:34N 47°55' W 122°30'1615.3
2016-Feb-03 23:31N 48°08' W 122°43'1515.2
2016-Feb-03 22:33N 48°12' W 123°04'1414.3
2016-Feb-03 21:33N 48°11' W 123°26'7 7.4
2016-Feb-03 20:33N 48°13' W 123°36'1211.8
2016-Feb-03 19:33N 48°14' W 123°54'1111.4
2016-Feb-03 18:33N 48°18' W 124°10'3410.9
2016-Feb-03 15:28N 48°28' W 124°58'1212.3
2016-Feb-03 14:30N 48°19' W 125°08'3714.7
2016-Feb-03 12:00N 47°42' W 125°12'4312.4 180 / 161017.010.8 2.0 9.0 6.914.0
2016-Feb-03 08:33N 46°60' W 125°16'1413.6
2016-Feb-03 07:31N 46°46' W 125°16'1414.1
2016-Feb-03 06:34N 46°32' W 125°15'1414.2
2016-Feb-03 05:34N 46°18' W 125°16'1414.1
2016-Feb-03 04:33N 46°04' W 125°16'6414.0
2016-Feb-03 00:00N 45°00' W 125°12'37912.8 190 / 161020.010.8 2.0 8.0 5.814.0
2016-Feb-01 18:28N 38°45' W 123°58'1314.2
2016-Feb-01 17:33N 38°35' W 123°48'1414.4
2016-Feb-01 16:33N 38°24' W 123°36'1414.1
2016-Feb-01 15:33N 38°13' W 123°24'1413.7
2016-Feb-01 14:33N 38°03' W 123°13'1313.3
2016-Feb-01 13:33N 37°55' W 122°60'1414.3
2016-Feb-01 12:34N 37°47' W 122°45'9 8.6
2016-Feb-01 11:33N 37°47' W 122°34'1110.7
2016-Feb-01 10:33N 37°49' W 122°20'1 0.6
2016-Feb-01 09:31N 37°49' W 122°19'0 0.0
2016-Feb-01 08:31N 37°49' W 122°19'0 0.0
2016-Feb-01 07:31N 37°49' W 122°19'0 0.0
2016-Feb-01 06:31N 37°49' W 122°19'0 0.0
2016-Feb-01 05:31N 37°49' W 122°19'0 0.0
2016-Feb-01 04:31N 37°49' W 122°19'0 0.0
2016-Feb-01 03:31N 37°49' W 122°19'0 0.0
2016-Feb-01 02:31N 37°49' W 122°19'  

Dump ship's entire track history